createdAt,value
2023-05-06T00:01:57.615Z,91.28
2023-05-06T00:04:24.418Z,91.42
2023-05-06T00:06:51.404Z,91.53
2023-05-06T00:09:17.971Z,91.44
2023-05-06T00:11:45.762Z,91.27
2023-05-06T00:14:12.503Z,91.23
2023-05-06T00:16:39.018Z,91.02
2023-05-06T00:19:06.115Z,91.31
2023-05-06T00:21:32.621Z,91.63
2023-05-06T00:23:59.929Z,91.57
2023-05-06T00:26:26.714Z,91.34
2023-05-06T00:28:53.523Z,91.65
2023-05-06T00:31:19.951Z,91.75
2023-05-06T00:33:46.682Z,91.57
2023-05-06T00:36:13.298Z,91.96
2023-05-06T00:38:39.861Z,91.89
2023-05-06T00:41:06.506Z,91.59
2023-05-06T00:43:35.538Z,92.04
2023-05-06T00:46:02.152Z,91.84
2023-05-06T00:48:29.051Z,91.62
2023-05-06T00:50:55.722Z,91.67
2023-05-06T00:53:22.325Z,91.67
2023-05-06T00:55:50.181Z,91.98
2023-05-06T00:58:18.867Z,92.00
2023-05-06T01:00:45.804Z,92.17
2023-05-06T01:03:13.175Z,92.24
2023-05-06T01:06:04.076Z,92.43
2023-05-06T01:08:37.337Z,92.23
2023-05-06T01:11:24.233Z,92.00
2023-05-06T01:13:56.343Z,92.18
2023-05-06T01:16:25.253Z,92.41
2023-05-06T01:18:53.704Z,92.55
2023-05-06T01:21:22.071Z,92.17
2023-05-06T01:23:51.814Z,92.41
2023-05-06T01:26:18.286Z,91.90
2023-05-06T01:28:44.729Z,92.22
2023-05-06T01:31:17.272Z,92.02
2023-05-06T01:34:13.413Z,92.16
2023-05-06T01:36:58.458Z,92.44
2023-05-06T01:39:26.353Z,92.22
2023-05-06T01:41:57.341Z,92.03
2023-05-06T01:44:24.901Z,92.29
2023-05-06T01:46:52.676Z,92.24
2023-05-06T01:49:22.086Z,92.31
2023-05-06T01:51:53.828Z,92.36
2023-05-06T01:54:20.382Z,92.14
2023-05-06T01:56:46.813Z,92.22
2023-05-06T01:59:14.837Z,92.07
2023-05-06T02:01:41.343Z,91.99
2023-05-06T02:04:07.820Z,91.62
2023-05-06T02:06:34.373Z,91.96
2023-05-06T02:09:01.214Z,92.12
2023-05-06T02:11:29.373Z,92.18
2023-05-06T02:14:02.157Z,92.08
2023-05-06T02:16:30.841Z,92.10
2023-05-06T02:18:57.337Z,92.21
2023-05-06T02:21:23.905Z,92.13
2023-05-06T02:23:50.662Z,91.93
2023-05-06T02:26:17.560Z,91.95
2023-05-06T02:28:44.060Z,91.93
2023-05-06T02:31:16.135Z,92.07
2023-05-06T02:33:43.119Z,92.17
2023-05-06T02:36:11.190Z,92.01
2023-05-06T02:38:37.938Z,91.90
2023-05-06T02:41:04.354Z,92.04
2023-05-06T02:43:30.876Z,91.94
2023-05-06T02:46:00.237Z,91.98
2023-05-06T02:48:26.861Z,91.90
2023-05-06T02:50:53.443Z,92.17
2023-05-06T02:53:19.921Z,91.85
2023-05-06T02:55:46.516Z,92.05
2023-05-06T02:58:13.624Z,92.08
2023-05-06T03:00:40.120Z,92.29
2023-05-06T03:03:06.621Z,92.16
2023-05-06T03:05:33.169Z,92.32
2023-05-06T03:07:59.681Z,92.29
2023-05-06T03:10:26.900Z,92.30
2023-05-06T03:12:54.998Z,92.40
2023-05-06T03:15:21.934Z,92.18
2023-05-06T03:17:48.476Z,92.04
2023-05-06T03:20:16.095Z,92.32
2023-05-06T03:22:48.499Z,92.35
2023-05-06T03:25:15.173Z,92.55
2023-05-06T03:27:42.232Z,92.83
2023-05-06T03:30:16.263Z,92.49
2023-05-06T03:32:43.810Z,93.17
2023-05-06T03:35:13.683Z,92.77
2023-05-06T03:37:43.712Z,92.96
2023-05-06T03:40:10.453Z,92.85
2023-05-06T03:42:36.953Z,92.67
2023-05-06T03:45:05.023Z,93.19
2023-05-06T03:47:33.025Z,92.93
2023-05-06T03:50:00.872Z,93.15
2023-05-06T03:52:28.468Z,92.93
2023-05-06T03:54:55.362Z,93.44
2023-05-06T03:57:22.658Z,93.32
2023-05-06T03:59:51.587Z,93.34
2023-05-06T04:02:18.239Z,93.52
2023-05-06T04:04:44.904Z,93.15
2023-05-06T04:07:11.933Z,93.67
2023-05-06T04:09:39.278Z,93.39
2023-05-06T04:12:08.012Z,93.23
2023-05-06T04:14:35.626Z,93.43
2023-05-06T04:17:02.512Z,93.18
2023-05-06T04:19:28.950Z,93.09
2023-05-06T04:21:55.774Z,93.49
2023-05-06T04:24:23.072Z,93.13
2023-05-06T04:26:50.216Z,93.42
2023-05-06T04:29:17.021Z,93.67
2023-05-06T04:31:54.002Z,93.67
2023-05-06T04:34:21.784Z,93.25
2023-05-06T04:36:49.466Z,93.16
2023-05-06T04:39:27.206Z,93.31
2023-05-06T04:41:54.298Z,93.14
2023-05-06T04:44:29.049Z,93.38
2023-05-06T04:46:55.482Z,93.21
2023-05-06T04:49:22.231Z,93.05
2023-05-06T04:51:49.542Z,92.85
2023-05-06T04:54:16.014Z,93.16
2023-05-06T04:56:42.454Z,93.11
2023-05-06T04:59:11.639Z,92.90
2023-05-06T05:01:39.762Z,93.02
2023-05-06T05:04:06.388Z,93.10
2023-05-06T05:06:33.016Z,93.42
2023-05-06T05:08:59.769Z,93.39
2023-05-06T05:11:27.213Z,93.21
2023-05-06T05:13:56.727Z,93.33
2023-05-06T05:16:24.048Z,93.62
2023-05-06T05:18:50.729Z,93.66
2023-05-06T05:21:21.481Z,93.78
2023-05-06T05:23:48.452Z,93.44
2023-05-06T05:26:14.896Z,93.28
2023-05-06T05:28:43.576Z,93.49
2023-05-06T05:31:10.590Z,93.52
2023-05-06T05:33:38.266Z,92.99
2023-05-06T05:36:08.217Z,92.80
2023-05-06T05:38:35.777Z,93.27
2023-05-06T05:41:02.977Z,92.88
2023-05-06T05:43:31.240Z,93.51
2023-05-06T05:45:58.574Z,93.71
2023-05-06T05:48:25.069Z,93.44
2023-05-06T05:50:51.674Z,93.82
2023-05-06T05:53:18.967Z,93.73
2023-05-06T05:55:45.756Z,93.51
2023-05-06T05:58:13.630Z,93.85
2023-05-06T06:00:41.467Z,93.90
2023-05-06T06:03:12.472Z,93.85
2023-05-06T06:05:39.159Z,93.88
2023-05-06T06:08:06.722Z,93.78
2023-05-06T06:10:33.930Z,93.81
2023-05-06T06:13:06.001Z,93.87
2023-05-06T06:15:33.288Z,94.14
2023-05-06T06:17:59.790Z,93.75
2023-05-06T06:20:28.247Z,93.87
2023-05-06T06:22:54.768Z,94.28
2023-05-06T06:25:21.648Z,94.32
2023-05-06T06:27:48.101Z,94.66
2023-05-06T06:30:14.681Z,94.94
2023-05-06T06:32:49.236Z,94.83
2023-05-06T06:35:15.972Z,94.85
2023-05-06T06:37:42.730Z,95.03
2023-05-06T06:40:10.738Z,94.38
2023-05-06T06:42:37.912Z,95.11
2023-05-06T06:45:23.610Z,95.01
2023-05-06T06:47:51.407Z,94.67
2023-05-06T06:50:18.413Z,94.89
2023-05-06T06:52:44.902Z,94.89
2023-05-06T06:55:11.675Z,94.81
2023-05-06T06:57:39.958Z,94.63
2023-05-06T07:00:07.105Z,94.22
2023-05-06T07:02:33.676Z,94.21
2023-05-06T07:05:00.375Z,94.29
2023-05-06T07:07:26.807Z,94.90
2023-05-06T07:09:53.398Z,94.15
2023-05-06T07:12:19.877Z,94.28
2023-05-06T07:14:46.435Z,94.56
2023-05-06T07:17:13.698Z,93.78
2023-05-06T07:19:40.349Z,92.00
2023-05-06T07:22:06.874Z,92.03
2023-05-06T07:24:33.368Z,89.46
2023-05-06T07:27:01.555Z,88.74
2023-05-06T07:29:28.189Z,86.71
2023-05-06T07:31:54.686Z,86.89
2023-05-06T07:34:21.094Z,87.24
2023-05-06T07:36:47.477Z,86.56
2023-05-06T07:39:14.782Z,86.84
2023-05-06T07:41:41.311Z,87.04
2023-05-06T07:44:07.802Z,85.37
2023-05-06T07:46:34.977Z,85.71
2023-05-06T07:49:01.485Z,86.33
2023-05-06T07:51:28.066Z,84.56
2023-05-06T07:53:54.572Z,84.48
2023-05-06T07:56:21.118Z,80.43
2023-05-06T07:58:49.532Z,80.21
2023-05-06T08:01:16.345Z,81.76
2023-05-06T08:03:43.789Z,81.49
2023-05-06T08:06:10.786Z,80.98
2023-05-06T08:08:37.320Z,79.35
2023-05-06T08:11:03.782Z,79.49
2023-05-06T08:13:30.576Z,79.03
2023-05-06T08:15:57.216Z,79.58
2023-05-06T08:18:23.897Z,79.99
2023-05-06T08:20:51.183Z,80.24
2023-05-06T08:23:17.859Z,77.63
2023-05-06T08:25:44.312Z,75.97
2023-05-06T08:28:10.876Z,76.69
2023-05-06T08:30:37.512Z,74.02
2023-05-06T08:33:04.086Z,72.07
2023-05-06T08:35:30.611Z,72.26
2023-05-06T08:37:57.072Z,73.01
2023-05-06T08:40:26.944Z,73.06
2023-05-06T08:42:55.969Z,72.49
2023-05-06T08:45:23.181Z,69.85
2023-05-06T08:47:49.801Z,70.11
2023-05-06T08:50:16.544Z,70.06
2023-05-06T08:52:43.553Z,69.00
2023-05-06T08:55:10.468Z,71.20
2023-05-06T08:57:37.485Z,71.16
2023-05-06T09:00:04.941Z,71.99
2023-05-06T09:02:31.605Z,70.47
2023-05-06T09:04:59.549Z,69.26
2023-05-06T09:07:26.274Z,68.01
2023-05-06T09:09:52.812Z,70.07
2023-05-06T09:12:19.335Z,68.21
2023-05-06T09:14:49.849Z,69.48
2023-05-06T09:17:27.980Z,69.03
2023-05-06T09:19:59.337Z,67.40
2023-05-06T09:22:27.918Z,66.69
2023-05-06T09:24:59.092Z,68.96
2023-05-06T09:27:28.079Z,67.93
2023-05-06T09:30:06.246Z,68.03
2023-05-06T09:32:36.801Z,64.45
2023-05-06T09:35:10.543Z,61.83
2023-05-06T09:37:37.293Z,64.06
2023-05-06T09:40:04.115Z,64.38
2023-05-06T09:42:31.378Z,63.61
2023-05-06T09:45:03.822Z,62.46
2023-05-06T09:47:35.323Z,61.88
2023-05-06T09:50:03.372Z,60.61
2023-05-06T09:52:31.287Z,60.57
2023-05-06T09:54:58.052Z,60.23
2023-05-06T09:57:24.662Z,60.19
2023-05-06T09:59:54.292Z,60.88
2023-05-06T10:02:24.245Z,58.37
2023-05-06T10:04:54.285Z,59.16
2023-05-06T10:07:25.642Z,58.76
2023-05-06T10:09:54.225Z,60.06
2023-05-06T10:12:21.035Z,58.60
2023-05-06T10:14:51.162Z,58.89
2023-05-06T10:17:18.940Z,57.99
2023-05-06T10:19:46.656Z,53.06
2023-05-06T10:22:35.814Z,54.09
2023-05-06T10:25:38.705Z,52.52
2023-05-06T10:28:06.953Z,53.60
2023-05-06T10:30:37.768Z,55.30
2023-05-06T10:33:09.024Z,52.21
2023-05-06T10:35:41.687Z,53.16
2023-05-06T10:38:19.731Z,55.15
2023-05-06T10:40:46.991Z,52.73
2023-05-06T10:43:25.796Z,52.72
2023-05-06T10:46:06.976Z,50.69
2023-05-06T10:48:33.842Z,51.35
2023-05-06T10:51:21.235Z,51.55
2023-05-06T10:54:07.615Z,50.14
2023-05-06T10:56:37.994Z,49.61
2023-05-06T10:59:11.816Z,50.54
2023-05-06T11:01:40.458Z,50.90
2023-05-06T11:04:14.828Z,49.85
2023-05-06T11:06:42.250Z,50.51
2023-05-06T11:09:20.503Z,48.94
2023-05-06T11:12:03.079Z,48.99
2023-05-06T11:14:38.261Z,48.67
2023-05-06T11:17:09.748Z,48.18
2023-05-06T11:19:38.438Z,48.23
2023-05-06T11:22:06.801Z,48.20
2023-05-06T11:24:41.659Z,48.73
2023-05-06T11:27:09.314Z,47.74
2023-05-06T11:29:36.062Z,47.85
2023-05-06T11:32:05.309Z,46.70
2023-05-06T11:34:32.704Z,48.48
2023-05-06T11:37:06.492Z,48.54
2023-05-06T11:39:40.297Z,48.85
2023-05-06T11:42:09.042Z,51.07
2023-05-06T11:44:37.802Z,48.63
2023-05-06T11:47:06.113Z,48.26
2023-05-06T11:49:43.604Z,50.43
2023-05-06T11:52:11.449Z,51.00
2023-05-06T11:54:42.558Z,48.19
2023-05-06T11:57:09.989Z,49.84
2023-05-06T11:59:37.909Z,47.50
2023-05-06T12:02:07.092Z,46.65
2023-05-06T12:04:47.775Z,46.07
2023-05-06T12:07:15.459Z,49.20
2023-05-06T12:09:44.340Z,49.86
2023-05-06T12:12:12.633Z,47.01
2023-05-06T12:14:40.207Z,47.02
2023-05-06T12:17:07.243Z,48.39
2023-05-06T12:19:33.941Z,45.26
2023-05-06T12:22:20.503Z,45.97
2023-05-06T12:24:48.268Z,45.33
2023-05-06T12:27:28.151Z,46.56
2023-05-06T12:29:54.732Z,44.86
2023-05-06T12:32:21.277Z,44.02
2023-05-06T12:34:47.800Z,46.69
2023-05-06T12:37:25.456Z,44.16
2023-05-06T12:39:51.918Z,43.70
2023-05-06T12:42:23.066Z,44.78
2023-05-06T12:44:50.665Z,45.38
2023-05-06T12:47:22.073Z,45.99
2023-05-06T12:49:53.972Z,45.70
2023-05-06T12:52:22.960Z,44.59
2023-05-06T12:54:49.944Z,45.33
2023-05-06T12:57:16.645Z,46.29
2023-05-06T12:59:45.542Z,46.31
2023-05-06T13:02:12.736Z,47.48
2023-05-06T13:04:39.651Z,47.89
2023-05-06T13:07:06.462Z,48.44
2023-05-06T13:09:33.218Z,48.63
2023-05-06T13:11:59.887Z,47.22
2023-05-06T13:14:26.427Z,46.95
2023-05-06T13:16:53.385Z,48.55
2023-05-06T13:19:31.655Z,46.24
2023-05-06T13:22:00.326Z,45.28
2023-05-06T13:24:27.048Z,46.66
2023-05-06T13:26:53.543Z,46.70
2023-05-06T13:29:20.009Z,47.82
2023-05-06T13:31:46.617Z,47.25
2023-05-06T13:34:14.110Z,47.05
2023-05-06T13:36:41.423Z,46.04
2023-05-06T13:39:08.770Z,44.26
2023-05-06T13:41:35.363Z,47.08
2023-05-06T13:44:01.824Z,45.29
2023-05-06T13:46:28.324Z,45.13
2023-05-06T13:48:54.819Z,44.25
2023-05-06T13:51:21.388Z,43.36
2023-05-06T13:53:48.127Z,43.75
2023-05-06T13:56:14.550Z,43.39
2023-05-06T13:58:40.966Z,41.78
2023-05-06T14:01:07.456Z,42.95
2023-05-06T14:03:33.953Z,40.99
2023-05-06T14:06:01.251Z,40.78
2023-05-06T14:08:27.685Z,40.80
2023-05-06T14:10:54.182Z,41.76
2023-05-06T14:13:20.810Z,40.43
2023-05-06T14:15:47.409Z,42.17
2023-05-06T14:18:13.894Z,42.86
2023-05-06T14:20:40.402Z,41.43
2023-05-06T14:23:06.981Z,41.57
2023-05-06T14:25:33.622Z,42.37
2023-05-06T14:28:00.414Z,41.10
2023-05-06T14:30:26.932Z,42.51
2023-05-06T14:32:53.560Z,42.24
2023-05-06T14:35:20.115Z,43.21
2023-05-06T14:37:46.685Z,43.77
2023-05-06T14:40:14.883Z,41.59
2023-05-06T14:42:41.378Z,42.17
2023-05-06T14:45:08.693Z,42.58
2023-05-06T14:47:35.890Z,42.54
2023-05-06T14:50:02.478Z,40.48
2023-05-06T14:52:28.976Z,41.46
2023-05-06T14:54:55.423Z,41.63
2023-05-06T14:57:21.945Z,42.24
2023-05-06T14:59:49.797Z,42.15
2023-05-06T15:02:16.373Z,42.90
2023-05-06T15:04:42.890Z,44.13
2023-05-06T15:07:09.333Z,44.10
2023-05-06T15:09:35.905Z,42.80
2023-05-06T15:12:02.413Z,42.29
2023-05-06T15:14:28.827Z,42.44
2023-05-06T15:16:58.524Z,43.86
2023-05-06T15:19:24.993Z,44.50
2023-05-06T15:21:51.740Z,43.92
2023-05-06T15:24:18.312Z,44.35
2023-05-06T15:26:44.901Z,45.17
2023-05-06T15:29:11.490Z,44.48
2023-05-06T15:31:41.079Z,44.97
2023-05-06T15:34:10.440Z,46.19
2023-05-06T15:36:37.297Z,44.40
2023-05-06T15:39:04.625Z,46.04
2023-05-06T15:41:32.532Z,44.04
2023-05-06T15:44:01.624Z,44.30
2023-05-06T15:46:29.672Z,45.39
2023-05-06T15:49:15.650Z,44.79
2023-05-06T15:51:46.181Z,44.07
2023-05-06T15:54:13.488Z,43.95
2023-05-06T15:56:41.615Z,45.08
2023-05-06T15:59:08.710Z,46.09
2023-05-06T16:01:53.914Z,44.80
2023-05-06T16:04:22.334Z,45.31
2023-05-06T16:06:49.846Z,45.77
2023-05-06T16:09:16.402Z,45.79
2023-05-06T16:11:43.022Z,44.82
2023-05-06T16:14:09.489Z,45.28
2023-05-06T16:16:36.087Z,45.87
2023-05-06T16:19:02.575Z,45.82
2023-05-06T16:21:29.087Z,45.94
2023-05-06T16:23:55.539Z,46.24
2023-05-06T16:26:22.143Z,46.29
2023-05-06T16:28:48.553Z,45.96
2023-05-06T16:31:15.054Z,45.25
2023-05-06T16:33:41.522Z,45.74
2023-05-06T16:36:08.243Z,46.21
2023-05-06T16:38:34.724Z,46.90
2023-05-06T16:41:01.141Z,46.64
2023-05-06T16:43:27.818Z,47.08
2023-05-06T16:45:54.304Z,45.74
2023-05-06T16:48:21.067Z,47.59
2023-05-06T16:50:47.682Z,46.26
2023-05-06T16:53:14.732Z,48.53
2023-05-06T16:55:46.570Z,48.13
2023-05-06T16:58:13.140Z,47.79
2023-05-06T17:00:39.761Z,47.35
2023-05-06T17:03:06.806Z,48.09
2023-05-06T17:05:33.574Z,48.23
2023-05-06T17:08:00.084Z,47.81
2023-05-06T17:10:29.345Z,47.69
2023-05-06T17:12:57.389Z,48.34
2023-05-06T17:15:25.708Z,49.22
2023-05-06T17:17:52.416Z,50.04
2023-05-06T17:20:22.805Z,49.11
2023-05-06T17:22:49.705Z,49.58
2023-05-06T17:25:16.615Z,49.30
2023-05-06T17:27:44.699Z,49.63
2023-05-06T17:30:11.995Z,49.24
2023-05-06T17:32:39.016Z,50.55
2023-05-06T17:35:31.260Z,51.54
2023-05-06T17:37:57.681Z,49.96
2023-05-06T17:40:24.480Z,50.99
2023-05-06T17:42:51.236Z,51.50
2023-05-06T17:45:17.752Z,52.17
2023-05-06T17:47:44.253Z,54.64
2023-05-06T17:50:11.583Z,57.00
2023-05-06T17:52:38.088Z,59.89
2023-05-06T17:55:15.670Z,61.12
2023-05-06T17:57:43.753Z,62.96
2023-05-06T18:00:13.673Z,64.19
2023-05-06T18:02:42.353Z,64.70
2023-05-06T18:05:09.498Z,65.03
2023-05-06T18:07:36.387Z,65.97
2023-05-06T18:10:02.973Z,67.13
2023-05-06T18:12:30.689Z,69.19
2023-05-06T18:14:57.907Z,69.80
2023-05-06T18:17:24.747Z,70.28
2023-05-06T18:19:51.280Z,70.57
2023-05-06T18:22:17.753Z,71.38
2023-05-06T18:24:44.184Z,71.50
2023-05-06T18:27:10.794Z,72.31
2023-05-06T18:29:37.181Z,72.26
2023-05-06T18:32:04.256Z,71.87
2023-05-06T18:34:30.760Z,72.78
2023-05-06T18:36:57.881Z,73.42
2023-05-06T18:39:24.538Z,73.26
2023-05-06T18:41:51.011Z,73.20
2023-05-06T18:44:17.525Z,72.90
2023-05-06T18:46:43.966Z,73.45
2023-05-06T18:49:10.933Z,73.52
2023-05-06T18:51:39.053Z,73.00
2023-05-06T18:54:06.968Z,73.61
2023-05-06T18:56:33.485Z,73.90
2023-05-06T18:59:00.020Z,74.44
2023-05-06T19:01:26.609Z,74.27
2023-05-06T19:03:53.250Z,74.19
2023-05-06T19:06:19.782Z,74.35
2023-05-06T19:08:46.801Z,73.21
2023-05-06T19:11:18.874Z,74.03
2023-05-06T19:13:46.333Z,73.56
2023-05-06T19:16:13.934Z,73.76
2023-05-06T19:18:40.618Z,74.10
2023-05-06T19:21:10.151Z,73.92
2023-05-06T19:23:36.788Z,73.02
2023-05-06T19:26:06.571Z,74.20
2023-05-06T19:28:33.468Z,73.70
2023-05-06T19:30:59.991Z,74.70
2023-05-06T19:33:26.471Z,74.61
2023-05-06T19:35:52.968Z,74.38
2023-05-06T19:38:19.730Z,75.18
2023-05-06T19:40:46.219Z,75.23
2023-05-06T19:43:12.619Z,75.57
2023-05-06T19:45:39.667Z,75.32
2023-05-06T19:48:08.449Z,76.21
2023-05-06T19:50:34.960Z,76.66
2023-05-06T19:53:01.459Z,75.83
2023-05-06T19:55:27.968Z,75.88
2023-05-06T19:57:57.292Z,75.80
2023-05-06T20:00:25.420Z,76.27
2023-05-06T20:02:51.957Z,76.01
2023-05-06T20:05:18.612Z,76.46
2023-05-06T20:07:45.360Z,76.61
2023-05-06T20:10:13.510Z,77.03
2023-05-06T20:12:43.641Z,77.57
2023-05-06T20:15:10.417Z,76.19
2023-05-06T20:17:37.119Z,77.17
2023-05-06T20:20:09.497Z,78.03
2023-05-06T20:22:40.387Z,77.74
2023-05-06T20:25:13.026Z,77.50
2023-05-06T20:27:40.168Z,77.98
2023-05-06T20:30:07.992Z,76.86
2023-05-06T20:32:34.963Z,77.33
2023-05-06T20:35:01.412Z,77.79
2023-05-06T20:37:28.643Z,77.90
2023-05-06T20:39:55.073Z,78.07
2023-05-06T20:42:21.524Z,78.32
2023-05-06T20:44:51.769Z,78.63
2023-05-06T20:47:18.559Z,78.77
2023-05-06T20:49:48.237Z,78.89
2023-05-06T20:52:14.829Z,77.94
2023-05-06T20:54:45.248Z,78.51
2023-05-06T20:57:13.601Z,79.03
2023-05-06T20:59:41.637Z,78.86
2023-05-06T21:02:13.654Z,78.89
2023-05-06T21:04:41.374Z,78.70
2023-05-06T21:07:07.887Z,78.67
2023-05-06T21:09:34.453Z,79.25
2023-05-06T21:12:01.132Z,79.41
2023-05-06T21:14:27.669Z,79.82
2023-05-06T21:16:54.206Z,79.91
2023-05-06T21:19:20.930Z,79.86
2023-05-06T21:21:47.588Z,80.22
2023-05-06T21:24:14.138Z,79.92
2023-05-06T21:26:40.620Z,79.79
2023-05-06T21:29:07.163Z,79.99
2023-05-06T21:31:33.815Z,80.07
2023-05-06T21:34:00.488Z,80.53
2023-05-06T21:36:27.115Z,79.87
2023-05-06T21:39:05.479Z,80.08
2023-05-06T21:41:31.905Z,80.16
2023-05-06T21:43:58.657Z,80.16
2023-05-06T21:46:25.407Z,80.72
2023-05-06T21:48:51.996Z,80.69
2023-05-06T21:51:18.492Z,81.01
2023-05-06T21:53:49.906Z,81.19
2023-05-06T21:56:18.527Z,81.87
2023-05-06T21:58:45.284Z,82.33
2023-05-06T22:01:11.835Z,82.20
2023-05-06T22:03:38.800Z,82.01
2023-05-06T22:06:05.672Z,82.50
2023-05-06T22:08:32.302Z,82.93
2023-05-06T22:11:00.342Z,83.24
2023-05-06T22:13:27.255Z,83.76
2023-05-06T22:15:54.012Z,83.89
2023-05-06T22:18:20.685Z,83.84
2023-05-06T22:20:49.305Z,83.75
2023-05-06T22:23:15.835Z,83.31
2023-05-06T22:25:42.268Z,83.46
2023-05-06T22:28:08.692Z,83.33
2023-05-06T22:30:35.196Z,83.52
2023-05-06T22:33:01.663Z,83.54
2023-05-06T22:35:28.154Z,83.50
2023-05-06T22:37:54.581Z,83.24
2023-05-06T22:40:21.110Z,83.13
2023-05-06T22:42:48.209Z,82.93
2023-05-06T22:45:14.745Z,83.22
2023-05-06T22:47:41.244Z,83.46
2023-05-06T22:50:08.103Z,83.61
2023-05-06T22:52:34.697Z,83.42
2023-05-06T22:55:01.216Z,83.75
2023-05-06T22:57:27.855Z,83.93
2023-05-06T22:59:54.340Z,84.20
2023-05-06T23:02:20.928Z,84.56
2023-05-06T23:04:47.468Z,84.70
2023-05-06T23:07:13.936Z,84.70
2023-05-06T23:09:40.613Z,84.61
2023-05-06T23:12:07.597Z,84.92
2023-05-06T23:14:34.066Z,85.01
2023-05-06T23:17:00.690Z,84.89
2023-05-06T23:19:27.187Z,84.60
2023-05-06T23:21:53.602Z,84.95
2023-05-06T23:24:19.993Z,85.36
2023-05-06T23:26:46.372Z,85.81
2023-05-06T23:29:12.801Z,85.50
2023-05-06T23:31:39.288Z,85.54
2023-05-06T23:34:05.735Z,85.44
2023-05-06T23:36:33.619Z,85.66
2023-05-06T23:39:00.144Z,85.51
2023-05-06T23:41:26.905Z,84.83
2023-05-06T23:43:53.408Z,85.04
2023-05-06T23:46:19.919Z,85.15
2023-05-06T23:48:46.387Z,85.33
2023-05-06T23:51:12.878Z,85.41
2023-05-06T23:53:40.177Z,84.84
2023-05-06T23:56:07.018Z,85.05
2023-05-06T23:58:33.601Z,84.98
